Time;durP1;ratioP1;P1;durP2;ratioP2;P2;SDS_P1;SDS_P2;PMS_P1;PMS_P2;Temp;Humidity;BMP_temperature;BMP_pressure;BME280_temperature;BME280_humidity;BME280_pressure;Samples;Min_cycle;Max_cycle;Signal;HPM_P1;HPM_P2
2021/12/27 00:03:00;;;;;;;107.50;60.70;;;;;;;-13.42;79.23;99540.65;433455;1311;143560;-64
2021/12/27 00:13:07;;;;;;;94.50;54.10;;;;;;;-13.37;79.18;99534.38;434641;1308;143445;-64
2021/12/27 00:23:13;;;;;;;94.90;55.10;;;;;;;-13.35;79.13;99534.95;435092;1310;143628;-64
2021/12/27 00:33:19;;;;;;;94.80;49.30;;;;;;;-13.31;79.40;99535.24;434050;1309;143797;-65
2021/12/27 00:43:25;;;;;;;93.80;50.40;;;;;;;-13.18;79.49;99540.02;433084;1311;143254;-65
2021/12/27 00:53:31;;;;;;;114.70;63.90;;;;;;;-13.06;79.64;99547.27;426975;1311;142939;-64
2021/12/27 01:03:37;;;;;;;98.00;53.60;;;;;;;-13.28;79.33;99551.51;429580;1310;143705;-64
2021/12/27 01:13:46;;;;;;;83.00;51.50;;;;;;;-13.46;79.04;99546.77;419124;1309;144157;-61
2021/12/27 01:23:53;;;;;;;91.90;49.40;;;;;;;-13.51;79.12;99543.58;433047;1309;143013;-61
2021/12/27 01:33:59;;;;;;;83.60;48.20;;;;;;;-13.57;79.36;99543.20;435040;1310;144303;-60
2021/12/27 01:44:05;;;;;;;86.10;48.50;;;;;;;-13.38;79.65;99534.35;435031;1310;142332;-59
2021/12/27 01:54:11;;;;;;;73.40;42.00;;;;;;;-13.27;79.57;99534.71;431776;1311;142809;-59
2021/12/27 02:04:17;;;;;;;81.00;43.00;;;;;;;-13.20;79.46;99543.52;434998;1310;143684;-59
2021/12/27 02:14:24;;;;;;;83.30;44.90;;;;;;;-13.14;79.66;99540.15;435223;1305;143121;-59
2021/12/27 02:24:29;;;;;;;76.90;41.70;;;;;;;-13.04;79.85;99537.58;431787;1309;144844;-59
2021/12/27 02:34:35;;;;;;;73.00;37.60;;;;;;;-12.96;80.21;99530.39;435209;1309;142883;-60
2021/12/27 02:44:41;;;;;;;70.20;38.20;;;;;;;-12.90;80.09;99524.36;431708;1312;145573;-59
2021/12/27 02:54:47;;;;;;;73.00;41.20;;;;;;;-12.82;80.28;99514.98;434417;1308;143423;-59
2021/12/27 03:04:53;;;;;;;62.20;34.10;;;;;;;-12.78;80.18;99504.78;435184;1309;143591;-59
2021/12/27 03:14:59;;;;;;;71.80;37.20;;;;;;;-12.86;80.22;99503.21;434001;1308;143323;-59
2021/12/27 03:25:06;;;;;;;75.80;40.40;;;;;;;-12.93;80.15;99503.52;433947;1311;144569;-59
2021/12/27 03:35:15;;;;;;;73.20;38.40;;;;;;;-13.21;79.33;99487.86;434835;1312;143203;-59
2021/12/27 03:45:24;;;;;;;65.70;38.20;;;;;;;-13.38;79.48;99490.23;434452;1309;146072;-59
2021/12/27 03:55:30;;;;;;;68.60;37.40;;;;;;;-13.46;79.33;99483.27;435016;1309;142908;-59
2021/12/27 04:05:36;;;;;;;56.20;30.40;;;;;;;-13.45;79.61;99472.55;435287;1308;142948;-59
2021/12/27 04:15:42;;;;;;;49.60;26.60;;;;;;;-13.41;79.88;99474.48;433225;1309;143703;-60
2021/12/27 04:25:48;;;;;;;44.70;25.10;;;;;;;-13.27;80.11;99474.91;434654;1308;144217;-61
2021/12/27 04:35:54;;;;;;;41.10;22.10;;;;;;;-13.25;79.95;99479.00;435294;1309;144197;-59
2021/12/27 04:46:00;;;;;;;48.20;25.30;;;;;;;-13.24;79.94;99478.02;433980;1310;143524;-61
2021/12/27 04:56:06;;;;;;;45.90;23.20;;;;;;;-13.21;79.53;99459.07;435361;1309;142916;-63
2021/12/27 05:06:13;;;;;;;36.60;19.60;;;;;;;-13.02;80.36;99462.30;434289;1307;182503;-58
2021/12/27 05:16:19;;;;;;;36.10;20.20;;;;;;;-12.68;80.32;99453.65;426067;1306;144592;-58
2021/12/27 05:26:24;;;;;;;33.80;16.60;;;;;;;-12.44;79.97;99456.65;422886;1309;143385;-59
2021/12/27 05:36:30;;;;;;;34.50;19.70;;;;;;;-12.39;79.70;99460.16;433791;1309;143419;-60
2021/12/27 05:46:36;;;;;;;40.60;21.50;;;;;;;-12.37;79.30;99457.66;433455;1311;145174;-59
2021/12/27 05:56:43;;;;;;;41.80;22.30;;;;;;;-12.41;79.02;99460.27;434028;1309;143478;-60
2021/12/27 06:06:49;;;;;;;38.30;20.80;;;;;;;-12.49;78.84;99462.08;433177;1311;144910;-60
2021/12/27 06:16:55;;;;;;;38.70;20.20;;;;;;;-12.45;78.57;99457.30;433643;1308;142900;-60
2021/12/27 06:27:01;;;;;;;37.80;18.90;;;;;;;-12.46;78.20;99459.46;433715;1310;143759;-59
2021/12/27 06:37:07;;;;;;;35.10;18.40;;;;;;;-12.47;78.04;99450.84;431795;1311;143686;-60
2021/12/27 06:47:12;;;;;;;34.00;17.90;;;;;;;-12.34;78.00;99449.16;434402;1311;143548;-59
2021/12/27 06:57:20;;;;;;;24.60;14.60;;;;;;;-12.14;77.92;99453.87;433691;1312;144457;-59
2021/12/27 07:07:26;;;;;;;33.10;18.20;;;;;;;-11.90;77.83;99460.35;433788;1311;142960;-59
2021/12/27 07:17:32;;;;;;;30.80;16.30;;;;;;;-11.57;78.09;99470.42;434455;1311;144765;-58
2021/12/27 07:27:38;;;;;;;29.00;15.80;;;;;;;-11.21;77.94;99476.30;434258;1307;143260;-59
2021/12/27 07:37:44;;;;;;;29.20;16.10;;;;;;;-10.59;77.77;99460.48;433527;1309;146623;-59
2021/12/27 07:47:50;;;;;;;28.10;17.40;;;;;;;-10.06;77.82;99456.98;433504;1310;143335;-59
2021/12/27 07:57:56;;;;;;;36.10;17.70;;;;;;;-9.39;77.49;99448.05;434581;1310;143378;-60
2021/12/27 08:08:02;;;;;;;33.10;16.50;;;;;;;-7.94;76.67;99445.09;435353;1309;143144;-60
2021/12/27 08:18:08;;;;;;;31.50;17.10;;;;;;;-5.98;74.71;99436.33;434051;1309;144075;-58
2021/12/27 08:28:13;;;;;;;25.40;17.00;;;;;;;-5.06;72.89;99425.84;434440;1311;145511;-59
2021/12/27 08:38:19;;;;;;;31.10;17.80;;;;;;;-4.49;71.76;99429.70;435637;1309;143586;-60
2021/12/27 08:48:25;;;;;;;30.10;17.70;;;;;;;-3.67;70.24;99428.30;434736;1309;143207;-58
2021/12/27 08:58:31;;;;;;;27.30;17.20;;;;;;;-2.85;69.10;99429.02;434504;1311;142715;-60
2021/12/27 09:08:37;;;;;;;29.20;16.40;;;;;;;-2.30;67.64;99410.35;431903;1301;142318;-60
2021/12/27 09:18:43;;;;;;;25.50;17.70;;;;;;;-2.35;67.07;99403.73;433347;1312;143971;-60
2021/12/27 09:28:49;;;;;;;29.00;16.10;;;;;;;-1.98;65.96;99401.27;432471;1312;143130;-57
2021/12/27 09:38:54;;;;;;;34.60;18.30;;;;;;;-3.24;65.57;99382.95;434543;1314;143387;-60
2021/12/27 09:49:04;;;;;;;41.30;17.50;;;;;;;-4.97;67.24;99365.35;434620;1309;143600;-60
2021/12/27 09:59:09;;;;;;;31.20;16.60;;;;;;;-5.91;67.94;99344.46;434622;1311;141975;-59
2021/12/27 10:09:16;;;;;;;36.40;16.40;;;;;;;-6.47;68.64;99335.61;433629;1310;143643;-68
2021/12/27 10:19:24;;;;;;;35.00;19.10;;;;;;;-6.96;69.35;99343.52;434659;1311;143170;-62
2021/12/27 10:29:31;;;;;;;34.10;17.20;;;;;;;-7.18;69.73;99334.92;434517;1311;142185;-65
2021/12/27 10:40:01;;;;;;;37.20;16.60;;;;;;;-7.29;70.06;99323.83;434011;1308;143138;-64
2021/12/27 10:50:11;;;;;;;25.90;13.70;;;;;;;-7.32;70.16;99317.02;433078;1308;142323;-64
2021/12/27 11:00:24;;;;;;;26.80;13.90;;;;;;;-7.24;69.89;99302.74;419654;1311;143524;-63
2021/12/27 11:10:33;;;;;;;29.00;15.00;;;;;;;-7.16;69.87;99281.17;432748;1308;143598;-58
2021/12/27 11:20:42;;;;;;;32.20;16.10;;;;;;;-6.98;69.97;99279.86;434413;1310;144099;-64
2021/12/27 11:30:48;;;;;;;39.70;18.20;;;;;;;-6.71;70.05;99269.02;432803;1311;142378;-64
2021/12/27 11:40:54;;;;;;;29.60;14.60;;;;;;;-6.58;69.66;99266.13;427826;1311;142801;-60
2021/12/27 11:51:11;;;;;;;29.50;12.80;;;;;;;-6.47;69.44;99251.65;426380;1311;142237;-68
2021/12/27 12:01:42;;;;;;;28.30;12.70;;;;;;;-6.30;69.27;99234.61;433950;1310;212229;-65
2021/12/27 12:12:03;;;;;;;29.90;12.50;;;;;;;-6.06;69.24;99221.09;433537;1311;142819;-68
2021/12/27 12:22:30;;;;;;;25.40;12.90;;;;;;;-5.85;69.34;99217.60;434649;1313;142183;-69
2021/12/27 12:32:36;;;;;;;30.60;15.50;;;;;;;-5.72;69.21;99210.73;431501;1311;141858;-69
2021/12/27 12:42:42;;;;;;;25.20;14.30;;;;;;;-5.66;69.40;99195.36;418825;1316;141328;-66
2021/12/27 12:52:53;;;;;;;26.60;14.50;;;;;;;-5.66;69.72;99191.09;430305;1312;142167;-67
2021/12/27 13:03:12;;;;;;;23.60;14.60;;;;;;;-5.69;69.87;99186.69;434524;1312;364877;-62
2021/12/27 13:13:19;;;;;;;29.50;14.80;;;;;;;-5.75;70.17;99185.69;421858;1312;142845;-70
2021/12/27 13:23:27;;;;;;;23.00;14.60;;;;;;;-5.79;70.42;99174.62;423452;1315;143082;-61
2021/12/27 13:33:40;;;;;;;37.00;20.20;;;;;;;-5.81;70.84;99165.77;433043;1312;142124;-62
2021/12/27 13:43:54;;;;;;;39.10;21.20;;;;;;;-5.95;70.99;99174.34;425938;1312;142344;-64
2021/12/27 13:54:02;;;;;;;40.00;20.10;;;;;;;-6.20;71.32;99190.63;432982;1313;143681;-66
2021/12/27 14:04:18;;;;;;;37.70;22.50;;;;;;;-6.45;71.67;99187.10;434473;1313;143075;-57
2021/12/27 14:14:39;;;;;;;35.00;22.00;;;;;;;-6.73;72.11;99178.09;434317;1313;142874;-65
2021/12/27 14:24:55;;;;;;;34.90;18.80;;;;;;;-7.04;72.47;99180.81;432694;1308;144750;-59
2021/12/27 14:35:01;;;;;;;40.00;24.30;;;;;;;-7.35;72.75;99177.01;434848;1313;142745;-60
2021/12/27 14:45:09;;;;;;;35.50;20.90;;;;;;;-7.64;73.19;99182.38;429854;1313;143017;-62
2021/12/27 14:55:16;;;;;;;41.20;23.80;;;;;;;-7.88;73.51;99178.05;434790;1311;144314;-57
2021/12/27 15:05:22;;;;;;;49.60;26.30;;;;;;;-8.10;73.88;99178.97;434836;1313;142825;-66
2021/12/27 15:15:28;;;;;;;47.30;24.60;;;;;;;-8.29;74.13;99173.41;434064;1311;143759;-65
2021/12/27 15:25:34;;;;;;;40.70;24.00;;;;;;;-8.46;74.17;99177.56;434584;1311;143152;-64
2021/12/27 15:35:40;;;;;;;43.40;21.70;;;;;;;-8.50;74.23;99178.23;434598;1311;143229;-62
2021/12/27 15:45:48;;;;;;;36.60;22.10;;;;;;;-8.53;74.11;99184.00;433846;1311;144759;-60
2021/12/27 15:55:54;;;;;;;45.10;22.80;;;;;;;-8.60;74.21;99194.48;422347;1313;142854;-60
2021/12/27 16:06:00;;;;;;;46.40;27.40;;;;;;;-8.76;74.28;99205.89;418496;1312;142185;-62
2021/12/27 16:16:09;;;;;;;47.60;25.50;;;;;;;-8.83;74.50;99206.52;418944;1311;142662;-60
2021/12/27 16:26:17;;;;;;;46.00;26.40;;;;;;;-8.82;74.55;99204.48;434777;1311;144270;-61
2021/12/27 16:36:23;;;;;;;51.10;30.30;;;;;;;-8.71;74.31;99205.08;432410;1313;143133;-62
2021/12/27 16:46:31;;;;;;;51.90;29.00;;;;;;;-8.74;74.43;99213.89;430993;1309;142969;-61
2021/12/27 16:56:37;;;;;;;56.60;27.90;;;;;;;-8.73;74.60;99213.72;434091;1311;143874;-60
2021/12/27 17:06:42;;;;;;;51.10;28.50;;;;;;;-8.55;74.50;99203.34;432525;1311;143866;-60
2021/12/27 17:16:48;;;;;;;48.00;28.40;;;;;;;-8.33;74.45;99195.47;434482;1311;143412;-63
2021/12/27 17:26:55;;;;;;;55.60;30.30;;;;;;;-8.14;74.21;99198.64;431607;1311;143395;-64
2021/12/27 17:37:01;;;;;;;55.10;27.80;;;;;;;-7.95;74.36;99189.73;433218;1311;143217;-64
2021/12/27 17:47:07;;;;;;;48.50;28.30;;;;;;;-7.81;74.48;99180.78;426599;1311;142740;-63
2021/12/27 17:57:13;;;;;;;39.50;23.20;;;;;;;-7.67;74.56;99172.67;433982;1311;147900;-64
2021/12/27 18:07:31;;;;;;;42.20;22.60;;;;;;;-7.52;74.77;99168.14;433423;1311;143340;-63
2021/12/27 18:17:38;;;;;;;36.60;21.70;;;;;;;-7.36;75.39;99176.67;432844;1313;144095;-64
2021/12/27 18:27:44;;;;;;;34.90;22.20;;;;;;;-7.19;75.53;99169.73;432663;1311;142763;-63
2021/12/27 18:37:51;;;;;;;34.10;19.60;;;;;;;-7.08;75.62;99170.58;434816;1310;143113;-63
2021/12/27 18:47:57;;;;;;;32.10;17.90;;;;;;;-7.02;75.81;99159.88;433445;1309;142439;-63
2021/12/27 18:58:04;;;;;;;33.60;18.40;;;;;;;-7.00;75.91;99150.52;433372;1311;143575;-64
2021/12/27 19:08:10;;;;;;;33.40;19.40;;;;;;;-7.02;76.07;99153.58;434552;1309;143180;-64
2021/12/27 19:18:16;;;;;;;35.60;20.70;;;;;;;-7.01;76.35;99149.67;432309;1313;183050;-67
2021/12/27 19:28:22;;;;;;;34.10;21.30;;;;;;;-6.99;76.71;99150.35;434284;1308;142765;-68
2021/12/27 19:38:28;;;;;;;34.40;19.50;;;;;;;-6.94;76.83;99148.98;433158;1312;144474;-68
2021/12/27 19:48:34;;;;;;;28.40;16.10;;;;;;;-6.87;77.09;99148.65;433639;1312;143197;-67
2021/12/27 19:58:40;;;;;;;32.30;19.60;;;;;;;-6.81;77.43;99153.24;433421;1307;142979;-67
2021/12/27 20:08:47;;;;;;;30.50;19.50;;;;;;;-6.81;77.47;99155.80;434601;1309;143561;-68
2021/12/27 20:18:52;;;;;;;33.10;19.90;;;;;;;-6.82;77.77;99144.90;431027;1310;142526;-67
2021/12/27 20:28:58;;;;;;;33.00;18.80;;;;;;;-6.80;77.80;99141.67;433051;1311;144173;-68
2021/12/27 20:39:05;;;;;;;32.00;17.90;;;;;;;-6.78;77.79;99142.17;433956;1311;143284;-69
2021/12/27 20:49:11;;;;;;;33.90;18.60;;;;;;;-6.78;77.86;99131.61;432308;1311;143106;-69
2021/12/27 20:59:17;;;;;;;29.90;17.40;;;;;;;-6.79;77.88;99124.63;434457;1308;143126;-67
2021/12/27 21:09:23;;;;;;;31.40;20.40;;;;;;;-6.79;77.84;99128.91;433775;1311;142595;-69
2021/12/27 21:19:27;;;;;;;;;;;;;;;-6.82;77.97;99128.20;434131;1311;143019;-68
2021/12/27 21:29:33;;;;;;;31.20;17.60;;;;;;;-6.83;77.96;99125.15;434650;1313;128556;-68
2021/12/27 21:39:39;;;;;;;37.90;19.60;;;;;;;-6.83;77.97;99123.80;421876;1309;142553;-68
2021/12/27 21:49:47;;;;;;;28.80;15.40;;;;;;;-6.89;77.99;99123.79;426562;1311;143138;-69
2021/12/27 21:59:52;;;;;;;28.50;18.00;;;;;;;-6.93;78.12;99121.77;430711;1311;143136;-70
2021/12/27 22:09:58;;;;;;;35.60;20.30;;;;;;;-6.95;78.23;99113.92;432202;1310;144002;-69
2021/12/27 22:20:06;;;;;;;30.50;17.40;;;;;;;-6.95;78.26;99104.90;427923;1310;143421;-69
2021/12/27 22:30:13;;;;;;;30.90;16.40;;;;;;;-6.95;78.40;99097.76;432890;1312;142933;-69
2021/12/27 22:40:20;;;;;;;30.00;17.80;;;;;;;-6.90;78.49;99086.86;424019;1311;142570;-68
2021/12/27 22:50:29;;;;;;;28.90;15.40;;;;;;;-6.88;78.58;99078.36;430688;1313;142413;-68
2021/12/27 23:00:38;;;;;;;31.20;18.00;;;;;;;-6.86;78.53;99086.36;434086;1311;142994;-67
2021/12/27 23:10:46;;;;;;;22.80;15.50;;;;;;;-6.84;78.68;99093.50;434036;1313;143601;-68
2021/12/27 23:20:51;;;;;;;31.70;18.50;;;;;;;-6.83;78.72;99084.48;434462;1312;143329;-68
2021/12/27 23:30:57;;;;;;;30.80;16.10;;;;;;;-6.86;78.65;99080.73;432634;1311;143641;-64
2021/12/27 23:41:06;;;;;;;29.70;17.10;;;;;;;-6.87;78.56;99067.45;434642;1311;144270;-63
2021/12/27 23:51:12;;;;;;;26.50;15.00;;;;;;;-6.91;78.68;99063.39;433938;1311;144351;-65
